Rogers City, MI

1:32 AM EST on November 20, 2017 (GMT -0500)
Presque Isle County

Weather History for KPZQ - May, 2013

Change the Weather History Date:

Thursday, May 23, 2013

  Actual Average (KAPN) Record (KAPN)
Temperature  
Mean Temperature 44 °F -  
Max Temperature 50 °F 67 °F 89 °F (1964)
Min Temperature 39 °F 42 °F 26 °F (1958)
Degree Days  
Heating Degree Days 20    
Moisture  
Dew Point 38 °F    
Average Humidity 81    
Maximum Humidity 97    
Minimum Humidity 55    
Precipitation  
Precipitation 0.00 in - - ()
Sea Level Pressure  
Sea Level Pressure 30.00 in    
Wind  
Wind Speed 10 mph (NNW)    
Max Wind Speed 16 mph    
Max Gust Speed 23 mph    
Visibility 8 miles    
Events Rain    
Averages and records for this station are not official NWS values.
T = Trace of Precipitation, MM = Missing Value Source: NWS Daily Summary

Daily Weather History Graph

Daily Weather History Graph

Search for Another Location

Airport or City:

Trip Planner

Search our weather history database for the weather conditions in past years. The results will help you decide how hot, cold, wet, or windy it might be!

Date:

Astronomy

May. 23, 2013 Rise Set
Actual Time 5:56 AM EDT 9:08 PM EDT
Civil Twilight 5:20 AM EDT 9:43 PM EDT
Nautical Twilight 4:34 AM EDT 10:30 PM EDT
Astronomical Twilight 3:38 AM EDT 11:27 PM EDT
Moon 7:35 PM EDT (5/23) 4:46 AM EDT (5/23)
Length of Visible Light 16h 22m
Length of Day
15h 11m
Waxing Gibbous, 97% of the Moon is Illuminated
May 23
Waxing Gibbous
May 25
Full
May 31
Last Quarter
Jun 8
New
Jun 16
First Quarter

Hourly Weather History & Observations

Time (EDT) Temp. Windchill Dew Point Humidity Pressure Visibility Wind Dir Wind Speed Gust Speed Precip Events Conditions
12:14 AM 49.8 °F - 48.9 °F 97% 29.75 in 2.0 mi NNW 6.9 mph - N/A Rain Rain
12:35 AM 49.5 °F - 48.6 °F 97% 29.76 in 2.0 mi NNW 8.1 mph - N/A Rain Heavy Rain
12:55 AM 49.1 °F - 48.2 °F 97% 29.76 in 2.5 mi NW 6.9 mph - N/A Rain Rain
1:14 AM 49.1 °F - 48.4 °F 97% 29.76 in 2.0 mi NNW 8.1 mph - N/A Rain Rain
1:35 AM 49.1 °F - 48.4 °F 97% 29.77 in 2.0 mi NNW 8.1 mph - N/A Rain Rain
1:55 AM 48.2 °F - 47.3 °F 97% 29.77 in 1.8 mi NNW 9.2 mph - N/A Rain Rain
2:15 AM 47.3 °F - 46.4 °F 97% 29.77 in 2.5 mi NNW 8.1 mph - N/A Rain Light Rain
2:35 AM 46.9 °F - 46.0 °F 97% 29.77 in 4.0 mi NNW 8.1 mph - N/A Rain Light Rain
2:55 AM 46.4 °F 42.4 °F 45.5 °F 97% 29.78 in 2.0 mi North 8.1 mph - N/A Rain Light Rain
3:15 AM 46.6 °F - 45.7 °F 97% 29.78 in 5.0 mi North 10.4 mph 16.1 mph N/A Rain Rain
3:35 AM 45.5 °F 40.8 °F 44.6 °F 97% 29.79 in 7.0 mi North 9.2 mph - N/A Rain Rain
3:54 AM 44.8 °F 39.9 °F 43.9 °F 97% 29.80 in 7.0 mi North 9.2 mph 17.3 mph N/A Rain Rain
4:15 AM 44.6 °F 38.8 °F 43.7 °F 97% 29.80 in 10.0 mi North 11.5 mph - N/A Rain Light Rain
4:35 AM 43.9 °F 39.3 °F 42.8 °F 96% 29.81 in 10.0 mi NNW 8.1 mph - N/A Rain Rain
4:54 AM 43.7 °F 38.6 °F 42.4 °F 95% 29.82 in 10.0 mi NNW 9.2 mph 17.3 mph N/A Rain Light Rain
5:15 AM 42.8 °F 37.0 °F 41.5 °F 95% 29.84 in 5.0 mi North 10.4 mph 17.3 mph N/A Rain Rain
5:35 AM 42.3 °F 35.9 °F 41.2 °F 96% 29.84 in 4.0 mi NNW 11.5 mph 17.3 mph N/A Rain Rain
5:54 AM 41.4 °F 35.2 °F 40.3 °F 96% 29.86 in 5.0 mi North 10.4 mph - N/A Rain Rain
6:15 AM 41.7 °F 35.6 °F 40.6 °F 96% 29.87 in 5.0 mi NNW 10.4 mph 16.1 mph N/A Rain Rain
6:35 AM 41.4 °F 34.7 °F 40.3 °F 96% 29.88 in 7.0 mi NNW 11.5 mph - N/A Rain Light Rain
6:55 AM 41.0 °F 35.8 °F 40.1 °F 97% 29.89 in 5.0 mi North 8.1 mph - N/A Rain Rain
7:15 AM 41.2 °F 36.0 °F 40.1 °F 96% 29.90 in 7.0 mi NNW 8.1 mph - N/A Rain Light Rain
7:34 AM 41.0 °F 34.7 °F 39.6 °F 95% 29.90 in 10.0 mi North 10.4 mph 16.1 mph N/A   Overcast
7:55 AM 41.0 °F 34.7 °F 39.6 °F 95% 29.92 in 10.0 mi North 10.4 mph 16.1 mph N/A   Overcast
8:15 AM 40.8 °F 35.0 °F 39.4 °F 95% 29.94 in 10.0 mi NNW 9.2 mph - N/A Rain Light Rain
8:34 AM 40.1 °F 33.6 °F 38.5 °F 94% 29.95 in 10.0 mi NNW 10.4 mph 19.6 mph N/A   Overcast
8:55 AM 39.9 °F 33.9 °F 38.1 °F 93% 29.96 in 7.0 mi NNW 9.2 mph - N/A Rain Light Rain
9:15 AM 39.6 °F 34.0 °F 37.9 °F 94% 29.98 in 7.0 mi NNW 8.1 mph - N/A Rain Light Rain
9:35 AM 39.4 °F 33.8 °F 37.9 °F 95% 29.99 in 5.0 mi NNW 8.1 mph - N/A Rain Rain
9:55 AM 39.2 °F 32.0 °F 37.8 °F 95% 30.00 in 5.0 mi NNW 11.5 mph 18.4 mph N/A Rain Rain
10:15 AM 39.0 °F 31.8 °F 37.8 °F 95% 30.01 in 5.0 mi North 11.5 mph 17.3 mph N/A Rain Rain
10:35 AM 39.2 °F 32.0 °F 37.8 °F 95% 30.01 in 7.0 mi North 11.5 mph 16.1 mph N/A Rain Light Rain
10:55 AM 39.6 °F 32.5 °F 37.9 °F 94% 30.02 in 7.0 mi North 11.5 mph - N/A Rain Light Rain
11:14 AM 39.2 °F 33.0 °F 37.4 °F 93% 30.03 in 7.0 mi North 9.2 mph - N/A   Light Drizzle
11:35 AM 39.9 °F 32.5 °F 37.8 °F 92% 30.04 in 10.0 mi North 12.7 mph - N/A Rain Light Rain
11:55 AM 40.3 °F 32.6 °F 37.9 °F 91% 30.04 in 10.0 mi North 13.8 mph - N/A   Overcast
12:14 PM 40.5 °F 32.5 °F 37.4 °F 89% 30.05 in 7.0 mi North 15.0 mph 19.6 mph N/A Rain Light Rain
12:35 PM 41.7 °F 34.8 °F 36.9 °F 83% 30.06 in 10.0 mi NNW 12.7 mph 20.7 mph N/A   Overcast
12:55 PM 41.5 °F 35.0 °F 35.8 °F 80% 30.06 in 10.0 mi NNW 11.5 mph 17.3 mph N/A   Overcast
1:15 PM 42.6 °F 36.8 °F 35.2 °F 75% 30.07 in 10.0 mi NNW 10.4 mph 16.1 mph N/A   Overcast
1:35 PM 42.3 °F 35.9 °F 35.4 °F 77% 30.07 in 10.0 mi NNW 11.5 mph 17.3 mph N/A   Overcast
1:55 PM 43.7 °F 36.9 °F 36.0 °F 74% 30.07 in 10.0 mi NNW 13.8 mph 18.4 mph N/A   Overcast
2:15 PM 44.1 °F 39.0 °F 35.1 °F 71% 30.07 in 10.0 mi NNW 9.2 mph 17.3 mph N/A   Overcast
2:35 PM 44.2 °F 39.2 °F 34.7 °F 69% 30.07 in 10.0 mi NNW 9.2 mph - N/A   Overcast
2:54 PM 45.7 °F 39.8 °F 34.3 °F 65% 30.07 in 10.0 mi NNW 12.7 mph 17.3 mph N/A   Scattered Clouds
3:15 PM 46.0 °F 40.6 °F 34.5 °F 64% 30.08 in 10.0 mi NNW 11.5 mph 16.1 mph N/A   Clear
3:35 PM 46.4 °F 41.1 °F 34.3 °F 63% 30.08 in 10.0 mi NNW 11.5 mph 18.4 mph N/A   Clear
3:54 PM 46.6 °F - 34.5 °F 63% 30.08 in 10.0 mi NNW 9.2 mph - N/A   Clear
4:15 PM 48.4 °F - 34.7 °F 59% 30.08 in 10.0 mi North 12.7 mph 18.4 mph N/A   Clear
4:35 PM 47.5 °F - 34.0 °F 59% 30.08 in 10.0 mi NW 10.4 mph 17.3 mph N/A   Clear
4:55 PM 49.6 °F - 34.5 °F 56% 30.09 in 10.0 mi NNW 10.4 mph 17.3 mph N/A   Clear
5:15 PM 49.3 °F - 36.0 °F 60% 30.09 in 10.0 mi NW 11.5 mph 16.1 mph N/A   Clear
5:34 PM 50.2 °F - 36.5 °F 59% 30.09 in 10.0 mi NNW 10.4 mph 17.3 mph N/A   Clear
5:55 PM 50.0 °F - 35.6 °F 58% 30.10 in 10.0 mi NW 13.8 mph 18.4 mph N/A   Clear
6:15 PM 49.8 °F - 35.2 °F 57% 30.10 in 10.0 mi NW 11.5 mph 19.6 mph N/A   Clear
6:34 PM 48.9 °F - 35.8 °F 61% 30.11 in 10.0 mi NNW 11.5 mph 18.4 mph N/A   Clear
6:55 PM 48.6 °F - 34.5 °F 58% 30.11 in 10.0 mi NW 15.0 mph 21.9 mph N/A   Clear
7:14 PM 49.3 °F - 34.0 °F 56% 30.12 in 10.0 mi NW 15.0 mph 23.0 mph N/A   Clear
7:35 PM 49.1 °F - 33.6 °F 55% 30.12 in 10.0 mi NW 16.1 mph 20.7 mph N/A   Clear
7:55 PM 48.2 °F - 33.4 °F 57% 30.13 in 10.0 mi NW 12.7 mph 19.6 mph N/A   Clear
8:15 PM 47.7 °F - 33.1 °F 57% 30.14 in 10.0 mi NW 9.2 mph 21.9 mph N/A   Clear
8:35 PM 46.8 °F - 32.5 °F 58% 30.15 in 10.0 mi NW 12.7 mph 20.7 mph N/A   Clear
8:55 PM 46.4 °F 40.4 °F 32.9 °F 59% 30.15 in 10.0 mi NW 13.8 mph 20.7 mph N/A   Scattered Clouds
9:15 PM 44.8 °F 39.0 °F 34.3 °F 67% 30.16 in 10.0 mi NNW 11.5 mph 21.9 mph N/A   Scattered Clouds
9:35 PM 43.3 °F 39.2 °F 36.1 °F 76% 30.18 in 10.0 mi NNW 6.9 mph - N/A   Mostly Cloudy
9:54 PM 43.3 °F 39.9 °F 35.6 °F 74% 30.19 in 10.0 mi North 5.8 mph - N/A   Overcast
10:15 PM 43.2 °F 39.7 °F 33.4 °F 69% 30.20 in 10.0 mi North 5.8 mph - N/A   Mostly Cloudy
10:35 PM 42.1 °F 37.7 °F 32.9 °F 70% 30.21 in 10.0 mi North 6.9 mph - N/A   Scattered Clouds
10:55 PM 41.4 °F 36.8 °F 33.3 °F 73% 30.22 in 10.0 mi North 6.9 mph - N/A   Clear
11:15 PM 41.0 °F 36.4 °F 33.8 °F 76% 30.23 in 10.0 mi NNE 6.9 mph - N/A   Clear
11:35 PM 41.0 °F 34.3 °F 33.6 °F 75% 30.23 in 10.0 mi NNE 11.5 mph 18.4 mph N/A   Clear
11:55 PM 40.1 °F 34.1 °F 33.3 °F 77% 30.24 in 10.0 mi NNE 9.2 mph - N/A   Clear